createdAt,value
2019-03-27T00:00:41.803Z,1012.32
2019-03-27T00:01:41.786Z,1012.31
2019-03-27T00:02:41.763Z,1012.27
2019-03-27T00:03:41.751Z,1012.30
2019-03-27T00:04:41.962Z,1012.31
2019-03-27T00:05:41.733Z,1012.28
2019-03-27T00:06:41.774Z,1012.29
2019-03-27T00:07:41.720Z,1012.29
2019-03-27T00:08:41.724Z,1012.35
2019-03-27T00:09:41.692Z,1012.32
2019-03-27T00:10:41.750Z,1012.29
2019-03-27T00:11:41.671Z,1012.31
2019-03-27T00:12:41.649Z,1012.31
2019-03-27T00:13:41.665Z,1012.27
2019-03-27T00:14:41.626Z,1012.24
2019-03-27T00:15:41.634Z,1012.29
2019-03-27T00:16:41.657Z,1012.20
2019-03-27T00:17:41.593Z,1012.21
2019-03-27T00:18:41.604Z,1012.28
2019-03-27T00:19:41.575Z,1012.26
2019-03-27T00:20:41.570Z,1012.23
2019-03-27T00:21:41.547Z,1012.23
2019-03-27T00:22:41.595Z,1012.30
2019-03-27T00:23:41.539Z,1012.34
2019-03-27T00:24:41.523Z,1012.31
2019-03-27T00:25:41.508Z,1012.31
2019-03-27T00:26:41.509Z,1012.29
2019-03-27T00:27:41.517Z,1012.30
2019-03-27T00:28:41.508Z,1012.28
2019-03-27T00:29:41.464Z,1012.26
2019-03-27T00:30:41.454Z,1012.28
2019-03-27T00:31:41.450Z,1012.25
2019-03-27T00:32:41.434Z,1012.28
2019-03-27T00:33:41.425Z,1012.22
2019-03-27T00:34:41.440Z,1012.23
2019-03-27T00:35:41.392Z,1012.23
2019-03-27T00:36:41.386Z,1012.17
2019-03-27T00:37:41.384Z,1012.15
2019-03-27T00:38:41.375Z,1012.14
2019-03-27T00:39:41.362Z,1012.14
2019-03-27T00:40:41.381Z,1012.16
2019-03-27T00:41:41.333Z,1012.15
2019-03-27T00:42:41.317Z,1012.16
2019-03-27T00:43:41.314Z,1012.21
2019-03-27T00:44:41.366Z,1012.18
2019-03-27T00:45:41.293Z,1012.21
2019-03-27T00:46:41.337Z,1012.19
2019-03-27T00:47:41.274Z,1012.25
2019-03-27T00:48:41.276Z,1012.17
2019-03-27T00:49:41.242Z,1012.14
2019-03-27T00:50:41.240Z,1012.23
2019-03-27T00:51:41.224Z,1012.17
2019-03-27T00:52:41.268Z,1012.17
2019-03-27T00:53:41.221Z,1012.14
2019-03-27T00:54:41.194Z,1012.14
2019-03-27T00:55:41.183Z,1012.14
2019-03-27T00:56:41.171Z,1012.12
2019-03-27T00:57:41.159Z,1012.14
2019-03-27T00:58:41.205Z,1012.17
2019-03-27T00:59:41.141Z,1012.16
2019-03-27T01:00:41.133Z,1012.15
2019-03-27T01:01:41.129Z,1012.19
2019-03-27T01:02:41.111Z,1012.17
2019-03-27T01:03:41.133Z,1012.17
2019-03-27T01:04:41.116Z,1012.14
2019-03-27T01:05:41.070Z,1012.11
2019-03-27T01:06:41.084Z,1012.13
2019-03-27T01:07:41.052Z,1012.09
2019-03-27T01:08:41.041Z,1012.11
2019-03-27T01:09:41.026Z,1012.12
2019-03-27T01:10:41.062Z,1012.12
2019-03-27T01:11:41.002Z,1012.12
2019-03-27T01:12:41.001Z,1012.09
2019-03-27T01:13:40.983Z,1012.10
2019-03-27T01:14:40.975Z,1012.09
2019-03-27T01:15:40.968Z,1012.11
2019-03-27T01:16:40.993Z,1012.09
2019-03-27T01:17:40.944Z,1012.13
2019-03-27T01:18:40.956Z,1012.12
2019-03-27T01:19:40.913Z,1012.15
2019-03-27T01:20:40.904Z,1012.14
2019-03-27T01:21:40.895Z,1012.07
2019-03-27T01:22:40.934Z,1012.11
2019-03-27T01:23:40.879Z,1012.12
2019-03-27T01:24:40.869Z,1012.16
2019-03-27T01:25:40.856Z,1012.19
2019-03-27T01:26:40.916Z,1012.17
2019-03-27T01:27:40.850Z,1012.17
2019-03-27T01:28:40.877Z,1012.18
2019-03-27T01:29:40.804Z,1012.17
2019-03-27T01:30:40.879Z,1012.17
2019-03-27T01:31:40.811Z,1012.15
2019-03-27T01:32:40.792Z,1012.12
2019-03-27T01:33:40.767Z,1012.08
2019-03-27T01:34:40.818Z,1012.13
2019-03-27T01:35:40.749Z,1012.07
2019-03-27T01:36:40.736Z,1012.07
2019-03-27T01:37:40.798Z,1012.07
2019-03-27T01:38:40.709Z,1012.06
2019-03-27T01:39:40.717Z,1012.08
2019-03-27T01:40:40.725Z,1012.11
2019-03-27T01:41:40.680Z,1012.09
2019-03-27T01:42:40.668Z,1012.03
2019-03-27T01:43:40.648Z,1012.04
2019-03-27T01:44:40.646Z,1012.07
2019-03-27T01:45:52.391Z,1012.03
2019-03-27T01:46:41.679Z,1012.08
2019-03-27T01:47:40.610Z,1012.11
2019-03-27T01:48:40.609Z,1012.13
2019-03-27T01:49:40.628Z,1012.12
2019-03-27T01:50:40.578Z,1012.12
2019-03-27T01:51:40.568Z,1012.15
2019-03-27T01:52:41.004Z,1012.13
2019-03-27T01:53:40.560Z,1012.14
2019-03-27T01:54:40.545Z,1012.18
2019-03-27T01:55:40.541Z,1012.21
2019-03-27T01:56:40.512Z,1012.24
2019-03-27T01:57:40.499Z,1012.22
2019-03-27T01:58:40.556Z,1012.22
2019-03-27T01:59:40.493Z,1012.26
2019-03-27T02:00:40.468Z,1012.22
2019-03-27T02:01:40.457Z,1012.22
2019-03-27T02:02:40.461Z,1012.14
2019-03-27T02:03:40.453Z,1012.12
2019-03-27T02:04:40.516Z,1012.13
2019-03-27T02:05:40.446Z,1012.09
2019-03-27T02:06:40.411Z,1012.06
2019-03-27T02:07:40.412Z,1012.08
2019-03-27T02:08:40.392Z,1012.04
2019-03-27T02:09:40.400Z,1012.08
2019-03-27T02:10:40.397Z,1012.05
2019-03-27T02:11:40.355Z,1012.09
2019-03-27T02:12:40.353Z,1012.17
2019-03-27T02:13:40.330Z,1012.16
2019-03-27T02:14:40.328Z,1012.11
2019-03-27T02:15:40.318Z,1012.12
2019-03-27T02:16:40.357Z,1012.16
2019-03-27T02:17:40.289Z,1012.14
2019-03-27T02:18:40.290Z,1012.14
2019-03-27T02:19:40.267Z,1012.14
2019-03-27T02:20:40.263Z,1012.18
2019-03-27T02:21:40.238Z,1012.13
2019-03-27T02:22:40.276Z,1012.16
2019-03-27T02:23:40.248Z,1012.17
2019-03-27T02:24:40.220Z,1012.14
2019-03-27T02:25:40.194Z,1012.16
2019-03-27T02:26:40.191Z,1012.15
2019-03-27T02:27:40.175Z,1012.15
2019-03-27T02:28:40.220Z,1012.18
2019-03-27T02:29:40.154Z,1012.15
2019-03-27T02:30:40.154Z,1012.22
2019-03-27T02:31:40.213Z,1012.24
2019-03-27T02:32:40.131Z,1012.28
2019-03-27T02:33:40.142Z,1012.24
2019-03-27T02:34:40.142Z,1012.30
2019-03-27T02:35:40.095Z,1012.24
2019-03-27T02:36:40.082Z,1012.31
2019-03-27T02:37:40.089Z,1012.31
2019-03-27T02:38:40.069Z,1012.25
2019-03-27T02:39:40.062Z,1012.25
2019-03-27T02:40:40.096Z,1012.26
2019-03-27T02:41:40.046Z,1012.28
2019-03-27T02:42:40.025Z,1012.28
2019-03-27T02:43:40.003Z,1012.25
2019-03-27T02:44:39.997Z,1012.27
2019-03-27T02:45:39.990Z,1012.29
2019-03-27T02:46:40.043Z,1012.34
2019-03-27T02:47:39.967Z,1012.35
2019-03-27T02:48:39.948Z,1012.38
2019-03-27T02:49:39.948Z,1012.36
2019-03-27T02:50:39.938Z,1012.39
2019-03-27T02:51:39.918Z,1012.33
2019-03-27T02:52:39.967Z,1012.34
2019-03-27T02:53:39.914Z,1012.38
2019-03-27T02:54:39.886Z,1012.30
2019-03-27T02:55:39.876Z,1012.30
2019-03-27T02:56:39.862Z,1012.27
2019-03-27T02:57:39.844Z,1012.29
2019-03-27T02:58:39.902Z,1012.27
2019-03-27T02:59:39.840Z,1012.30
2019-03-27T03:00:39.824Z,1012.28
2019-03-27T03:01:39.812Z,1012.30
2019-03-27T03:02:39.804Z,1012.28
2019-03-27T03:03:39.804Z,1012.22
2019-03-27T03:04:39.822Z,1012.27
2019-03-27T03:05:39.759Z,1012.28
2019-03-27T03:06:39.759Z,1012.24
2019-03-27T03:07:39.765Z,1012.25
2019-03-27T03:08:39.736Z,1012.28
2019-03-27T03:09:39.717Z,1012.24
2019-03-27T03:10:39.750Z,1012.24
2019-03-27T03:11:39.781Z,1012.23
2019-03-27T03:12:39.706Z,1012.23
2019-03-27T03:13:39.758Z,1012.21
2019-03-27T03:14:39.679Z,1012.24
2019-03-27T03:15:39.649Z,1012.20
2019-03-27T03:16:42.773Z,1012.20
2019-03-27T03:17:39.628Z,1012.19
2019-03-27T03:18:39.626Z,1012.17
2019-03-27T03:19:39.641Z,1012.12
2019-03-27T03:20:39.603Z,1012.15
2019-03-27T03:21:39.584Z,1012.09
2019-03-27T03:22:39.638Z,1012.09
2019-03-27T03:23:39.564Z,1012.12
2019-03-27T03:24:39.557Z,1012.09
2019-03-27T03:25:39.581Z,1012.15
2019-03-27T03:26:39.560Z,1012.12
2019-03-27T03:27:39.535Z,1012.15
2019-03-27T03:28:39.546Z,1012.13
2019-03-27T03:29:39.512Z,1012.14
2019-03-27T03:30:39.540Z,1012.03
2019-03-27T03:31:39.492Z,1012.14
2019-03-27T03:32:39.497Z,1012.16
2019-03-27T03:33:39.479Z,1012.12
2019-03-27T03:34:39.496Z,1012.17
2019-03-27T03:35:39.437Z,1012.10
2019-03-27T03:36:39.445Z,1012.11
2019-03-27T03:37:39.407Z,1012.08
2019-03-27T03:38:39.416Z,1012.10
2019-03-27T03:39:39.396Z,1012.05
2019-03-27T03:40:39.443Z,1012.10
2019-03-27T03:41:39.370Z,1012.09
2019-03-27T03:42:39.375Z,1012.13
2019-03-27T03:43:39.365Z,1012.17
2019-03-27T03:44:39.362Z,1012.13
2019-03-27T03:45:39.338Z,1012.13
2019-03-27T03:46:39.357Z,1012.13
2019-03-27T03:47:39.310Z,1012.16
2019-03-27T03:48:39.338Z,1012.15
2019-03-27T03:49:39.311Z,1012.10
2019-03-27T03:50:39.280Z,1012.17
2019-03-27T03:51:39.271Z,1012.16
2019-03-27T03:52:39.300Z,1012.20
2019-03-27T03:53:39.246Z,1012.17
2019-03-27T03:54:39.244Z,1012.17
2019-03-27T03:55:39.219Z,1012.17
2019-03-27T03:56:39.207Z,1012.19
2019-03-27T03:57:39.217Z,1012.22
2019-03-27T03:58:39.247Z,1012.24
2019-03-27T03:59:39.182Z,1012.18
2019-03-27T04:00:39.175Z,1012.24
2019-03-27T04:01:39.155Z,1012.24
2019-03-27T04:02:39.152Z,1012.21
2019-03-27T04:03:39.165Z,1012.26
2019-03-27T04:04:39.184Z,1012.27
2019-03-27T04:05:39.130Z,1012.30
2019-03-27T04:06:39.101Z,1012.30
2019-03-27T04:07:39.085Z,1012.32
2019-03-27T04:08:39.093Z,1012.35
2019-03-27T04:09:39.065Z,1012.36
2019-03-27T04:10:39.107Z,1012.31
2019-03-27T04:11:39.051Z,1012.36
2019-03-27T04:12:39.034Z,1012.32
2019-03-27T04:13:39.019Z,1012.34
2019-03-27T04:14:39.011Z,1012.33
2019-03-27T04:15:39.002Z,1012.41
2019-03-27T04:16:39.053Z,1012.40
2019-03-27T04:17:38.993Z,1012.42
2019-03-27T04:18:38.969Z,1012.41
2019-03-27T04:19:38.957Z,1012.38
2019-03-27T04:20:38.952Z,1012.34
2019-03-27T04:21:38.937Z,1012.37
2019-03-27T04:22:38.954Z,1012.37
2019-03-27T04:23:38.919Z,1012.42
2019-03-27T04:24:38.917Z,1012.44
2019-03-27T04:26:07.269Z,1012.43
2019-03-27T04:26:39.898Z,1012.45
2019-03-27T04:27:38.870Z,1012.42
2019-03-27T04:28:38.914Z,1012.39
2019-03-27T04:29:38.844Z,1012.48
2019-03-27T04:30:38.834Z,1012.46
2019-03-27T04:31:38.837Z,1012.46
2019-03-27T04:32:38.839Z,1012.42
2019-03-27T04:33:38.822Z,1012.45
2019-03-27T04:34:38.835Z,1012.45
2019-03-27T04:35:38.793Z,1012.47
2019-03-27T04:36:38.821Z,1012.46
2019-03-27T04:37:38.769Z,1012.53
2019-03-27T04:38:38.746Z,1012.58
2019-03-27T04:39:38.742Z,1012.53
2019-03-27T04:40:38.791Z,1012.61
2019-03-27T04:41:38.723Z,1012.59
2019-03-27T04:42:38.703Z,1012.64
2019-03-27T04:43:38.717Z,1012.63
2019-03-27T04:44:38.693Z,1012.59
2019-03-27T04:45:38.670Z,1012.59
2019-03-27T04:46:38.713Z,1012.55
2019-03-27T04:47:38.655Z,1012.58
2019-03-27T04:48:38.640Z,1012.61
2019-03-27T04:49:38.648Z,1012.56
2019-03-27T04:50:38.619Z,1012.57
2019-03-27T04:51:38.608Z,1012.54
2019-03-27T04:52:38.655Z,1012.59
2019-03-27T04:53:38.590Z,1012.61
2019-03-27T04:54:38.577Z,1012.59
2019-03-27T04:55:38.578Z,1012.62
2019-03-27T04:56:38.566Z,1012.70
2019-03-27T04:57:38.555Z,1012.70
2019-03-27T04:58:38.625Z,1012.72
2019-03-27T04:59:38.521Z,1012.71
2019-03-27T05:00:38.514Z,1012.68
2019-03-27T05:01:38.510Z,1012.69
2019-03-27T05:02:38.490Z,1012.73
2019-03-27T05:03:38.479Z,1012.69
2019-03-27T05:04:38.507Z,1012.76
2019-03-27T05:05:38.456Z,1012.67
2019-03-27T05:06:38.445Z,1012.69
2019-03-27T05:07:38.430Z,1012.80
2019-03-27T05:08:38.419Z,1012.75
2019-03-27T05:09:38.418Z,1012.78
2019-03-27T05:10:38.491Z,1012.80
2019-03-27T05:11:38.464Z,1012.87
2019-03-27T05:12:38.872Z,1012.87
2019-03-27T05:13:38.388Z,1012.89
2019-03-27T05:14:38.386Z,1012.88
2019-03-27T05:15:38.359Z,1012.94
2019-03-27T05:16:38.408Z,1012.93
2019-03-27T05:17:45.673Z,1012.98
2019-03-27T05:18:39.314Z,1012.94
2019-03-27T05:19:38.300Z,1012.89
2019-03-27T05:20:38.340Z,1012.91
2019-03-27T05:21:38.301Z,1012.87
2019-03-27T05:22:38.330Z,1012.90
2019-03-27T05:23:38.270Z,1012.89
2019-03-27T05:24:38.281Z,1012.94
2019-03-27T05:25:38.252Z,1012.93
2019-03-27T05:26:38.241Z,1012.91
2019-03-27T05:27:38.240Z,1012.92
2019-03-27T05:28:38.252Z,1012.88
2019-03-27T05:29:38.204Z,1012.95
2019-03-27T05:30:38.189Z,1012.95
2019-03-27T05:31:38.197Z,1012.99
2019-03-27T05:32:38.186Z,1012.97
2019-03-27T05:33:38.150Z,1012.89
2019-03-27T05:34:38.177Z,1013.03
2019-03-27T05:35:38.141Z,1013.00
2019-03-27T05:36:38.138Z,1013.07
2019-03-27T05:37:38.121Z,1013.05
2019-03-27T05:38:38.108Z,1013.05
2019-03-27T05:39:38.149Z,1013.05
2019-03-27T05:40:38.131Z,1013.02
2019-03-27T05:41:38.070Z,1013.01
2019-03-27T05:42:38.050Z,1013.02
2019-03-27T05:43:38.071Z,1013.04
2019-03-27T05:44:38.029Z,1013.02
2019-03-27T05:45:38.058Z,1013.01
2019-03-27T05:46:38.072Z,1013.03
2019-03-27T05:47:38.008Z,1013.03
2019-03-27T05:48:37.994Z,1013.00
2019-03-27T05:49:37.994Z,1013.02
2019-03-27T05:50:38.018Z,1012.98
2019-03-27T05:51:37.962Z,1012.97
2019-03-27T05:52:38.440Z,1012.98
2019-03-27T05:53:37.944Z,1013.01
2019-03-27T05:54:37.922Z,1013.01
2019-03-27T05:55:37.908Z,1013.01
2019-03-27T05:56:37.903Z,1013.00
2019-03-27T05:57:37.953Z,1012.98
2019-03-27T05:58:37.913Z,1013.05
2019-03-27T05:59:37.894Z,1013.06
2019-03-27T06:00:37.858Z,1013.05
2019-03-27T06:01:37.866Z,1013.00
2019-03-27T06:02:37.855Z,1013.00
2019-03-27T06:03:37.838Z,1012.99
2019-03-27T06:04:37.851Z,1012.99
2019-03-27T06:05:37.807Z,1013.01
2019-03-27T06:06:37.802Z,1013.05
2019-03-27T06:07:37.818Z,1013.06
2019-03-27T06:08:37.780Z,1013.06
2019-03-27T06:09:37.812Z,1013.05
2019-03-27T06:10:37.799Z,1013.11
2019-03-27T06:11:37.734Z,1013.07
2019-03-27T06:12:37.744Z,1013.13
2019-03-27T06:13:37.709Z,1013.15
2019-03-27T06:14:37.711Z,1013.14
2019-03-27T06:15:37.694Z,1013.16
2019-03-27T06:16:37.725Z,1013.16
2019-03-27T06:17:37.668Z,1013.12
2019-03-27T06:18:37.670Z,1013.21
2019-03-27T06:19:37.669Z,1013.12
2019-03-27T06:20:37.637Z,1013.07
2019-03-27T06:21:37.636Z,1013.13
2019-03-27T06:22:37.678Z,1013.10
2019-03-27T06:23:37.607Z,1013.14
2019-03-27T06:24:37.693Z,1013.16
2019-03-27T06:25:37.628Z,1013.19
2019-03-27T06:26:37.581Z,1013.22
2019-03-27T06:27:37.565Z,1013.21
2019-03-27T06:28:37.615Z,1013.28
2019-03-27T06:29:37.544Z,1013.20
2019-03-27T06:30:37.531Z,1013.19
2019-03-27T06:31:37.555Z,1013.19
2019-03-27T06:32:37.522Z,1013.21
2019-03-27T06:33:37.493Z,1013.28
2019-03-27T06:34:37.512Z,1013.24
2019-03-27T06:35:37.504Z,1013.26
2019-03-27T06:36:37.468Z,1013.27
2019-03-27T06:37:37.447Z,1013.28
2019-03-27T06:38:37.482Z,1013.31
2019-03-27T06:39:37.428Z,1013.28
2019-03-27T06:40:39.740Z,1013.22
2019-03-27T06:41:37.415Z,1013.24
2019-03-27T06:42:37.408Z,1013.27
2019-03-27T06:43:37.392Z,1013.29
2019-03-27T06:44:37.390Z,1013.29
2019-03-27T06:45:37.364Z,1013.32
2019-03-27T06:46:37.379Z,1013.32
2019-03-27T06:47:37.336Z,1013.33
2019-03-27T06:48:37.328Z,1013.31
2019-03-27T06:49:37.349Z,1013.32
2019-03-27T06:50:37.318Z,1013.28
2019-03-27T06:51:40.288Z,1013.30
2019-03-27T06:52:37.344Z,1013.28
2019-03-27T06:53:37.290Z,1013.28
2019-03-27T06:54:37.267Z,1013.31
2019-03-27T06:55:37.292Z,1013.33
2019-03-27T06:56:37.241Z,1013.37
2019-03-27T06:57:37.225Z,1013.34
2019-03-27T06:58:37.267Z,1013.26
2019-03-27T06:59:37.205Z,1013.32
2019-03-27T07:00:37.206Z,1013.31
2019-03-27T07:01:37.175Z,1013.28
2019-03-27T07:02:37.169Z,1013.33
2019-03-27T07:03:37.158Z,1013.34
2019-03-27T07:04:37.210Z,1013.32
2019-03-27T07:05:37.137Z,1013.35
2019-03-27T07:06:37.127Z,1013.33
2019-03-27T07:07:37.121Z,1013.40
2019-03-27T07:08:37.100Z,1013.41
2019-03-27T07:09:37.091Z,1013.47
2019-03-27T07:10:37.136Z,1013.43
2019-03-27T07:11:37.190Z,1013.46
2019-03-27T07:12:37.460Z,1013.51
2019-03-27T07:13:37.081Z,1013.54
2019-03-27T07:14:37.045Z,1013.52
2019-03-27T07:15:37.080Z,1013.48
2019-03-27T07:16:37.223Z,1013.47
2019-03-27T07:17:37.040Z,1013.56
2019-03-27T07:18:40.432Z,1013.54
2019-03-27T07:19:37.086Z,1013.49
2019-03-27T07:20:36.966Z,1013.54
2019-03-27T07:21:37.235Z,1013.56
2019-03-27T07:22:37.058Z,1013.59
2019-03-27T07:23:37.027Z,1013.52
2019-03-27T07:24:37.012Z,1013.57
2019-03-27T07:25:37.071Z,1013.60
2019-03-27T07:26:37.014Z,1013.60
2019-03-27T07:27:36.996Z,1013.63
2019-03-27T07:28:37.028Z,1013.58
2019-03-27T07:29:36.993Z,1013.59
2019-03-27T07:30:36.955Z,1013.56
2019-03-27T07:31:36.950Z,1013.62
2019-03-27T07:32:36.973Z,1013.60
2019-03-27T07:33:36.912Z,1013.64
2019-03-27T07:34:36.953Z,1013.68
2019-03-27T07:35:36.815Z,1013.76
2019-03-27T07:36:36.796Z,1013.72
2019-03-27T07:37:36.790Z,1013.72
2019-03-27T07:38:36.774Z,1013.68
2019-03-27T07:39:36.754Z,1013.71
2019-03-27T07:40:36.787Z,1013.72
2019-03-27T07:41:36.732Z,1013.71
2019-03-27T07:42:36.729Z,1013.70
2019-03-27T07:43:36.722Z,1013.70
2019-03-27T07:44:36.711Z,1013.74
2019-03-27T07:45:36.713Z,1013.76
2019-03-27T07:46:36.742Z,1013.74
2019-03-27T07:47:36.690Z,1013.76
2019-03-27T07:48:36.662Z,1013.80
2019-03-27T07:49:36.677Z,1013.72
2019-03-27T07:50:36.650Z,1013.71
2019-03-27T07:51:36.633Z,1013.71
2019-03-27T07:52:36.646Z,1013.72
2019-03-27T07:53:36.613Z,1013.74
2019-03-27T07:54:36.644Z,1013.70
2019-03-27T07:55:36.579Z,1013.73
2019-03-27T07:56:36.634Z,1013.72
2019-03-27T07:57:36.562Z,1013.68
2019-03-27T07:58:36.620Z,1013.71
2019-03-27T07:59:36.547Z,1013.70
2019-03-27T08:00:36.534Z,1013.73
2019-03-27T08:01:36.522Z,1013.71
2019-03-27T08:02:36.499Z,1013.71
2019-03-27T08:03:36.533Z,1013.67
2019-03-27T08:04:36.682Z,1013.67
2019-03-27T08:05:36.477Z,1013.66
2019-03-27T08:06:36.465Z,1013.69
2019-03-27T08:07:36.463Z,1013.67
2019-03-27T08:08:36.452Z,1013.67
2019-03-27T08:09:36.428Z,1013.63
2019-03-27T08:10:36.616Z,1013.70
2019-03-27T08:11:36.440Z,1013.69
2019-03-27T08:12:36.390Z,1013.68
2019-03-27T08:13:36.378Z,1013.69
2019-03-27T08:14:36.368Z,1013.65
2019-03-27T08:15:36.393Z,1013.63
2019-03-27T08:16:36.371Z,1013.60
2019-03-27T08:17:36.373Z,1013.67
2019-03-27T08:18:36.349Z,1013.66
2019-03-27T08:19:36.314Z,1013.63
2019-03-27T08:20:36.314Z,1013.64
2019-03-27T08:21:36.289Z,1013.67
2019-03-27T08:22:36.522Z,1013.62
2019-03-27T08:23:36.284Z,1013.61
2019-03-27T08:24:36.301Z,1013.62
2019-03-27T08:25:36.254Z,1013.62
2019-03-27T08:26:36.242Z,1013.65
2019-03-27T08:27:36.222Z,1013.66
2019-03-27T08:28:36.350Z,1013.71
2019-03-27T08:29:36.202Z,1013.66
2019-03-27T08:30:36.204Z,1013.64
2019-03-27T08:31:36.201Z,1013.66
2019-03-27T08:32:37.502Z,1013.68
2019-03-27T08:33:36.159Z,1013.69
2019-03-27T08:34:36.190Z,1013.65
2019-03-27T08:35:36.156Z,1013.64
2019-03-27T08:36:36.129Z,1013.65
2019-03-27T08:37:36.121Z,1013.67
2019-03-27T08:38:36.115Z,1013.69
2019-03-27T08:39:36.089Z,1013.71
2019-03-27T08:40:36.129Z,1013.74
2019-03-27T08:41:36.067Z,1013.72
2019-03-27T08:42:36.055Z,1013.75
2019-03-27T08:43:36.046Z,1013.74
2019-03-27T08:44:36.049Z,1013.77
2019-03-27T08:45:36.052Z,1013.73
2019-03-27T08:46:36.134Z,1013.70
2019-03-27T08:47:36.010Z,1013.75
2019-03-27T08:48:39.080Z,1013.75
2019-03-27T08:49:35.989Z,1013.74
2019-03-27T08:50:35.969Z,1013.73
2019-03-27T08:51:35.961Z,1013.73
2019-03-27T08:52:36.013Z,1013.71
2019-03-27T08:53:35.947Z,1013.71
2019-03-27T08:54:35.960Z,1013.67
2019-03-27T08:55:35.920Z,1013.68
2019-03-27T08:56:35.953Z,1013.71
2019-03-27T08:57:35.911Z,1013.67
2019-03-27T08:58:35.931Z,1013.65
2019-03-27T08:59:35.872Z,1013.71
2019-03-27T09:00:35.886Z,1013.73
2019-03-27T09:01:35.846Z,1013.77
2019-03-27T09:02:35.839Z,1013.74
2019-03-27T09:03:35.898Z,1013.79
2019-03-27T09:04:35.872Z,1013.75
2019-03-27T09:05:35.814Z,1013.73
2019-03-27T09:06:35.806Z,1013.75
2019-03-27T09:07:35.781Z,1013.80
2019-03-27T09:08:35.771Z,1013.84
2019-03-27T09:09:35.798Z,1013.83
2019-03-27T09:10:35.815Z,1013.87
2019-03-27T09:11:35.750Z,1013.85
2019-03-27T09:12:35.726Z,1013.86
2019-03-27T09:13:35.714Z,1013.89
2019-03-27T09:14:35.713Z,1013.89
2019-03-27T09:15:35.699Z,1013.86
2019-03-27T09:16:35.733Z,1013.86
2019-03-27T09:17:35.671Z,1013.86
2019-03-27T09:18:35.691Z,1013.91
2019-03-27T09:19:36.428Z,1013.86
2019-03-27T09:20:35.639Z,1013.89
2019-03-27T09:21:35.638Z,1013.87
2019-03-27T09:22:35.689Z,1013.86
2019-03-27T09:23:35.602Z,1013.91
2019-03-27T09:24:35.593Z,1013.88
2019-03-27T09:25:35.581Z,1013.96
2019-03-27T09:26:35.577Z,1013.94
2019-03-27T09:27:35.564Z,1013.92
2019-03-27T09:28:35.612Z,1013.98
2019-03-27T09:29:35.547Z,1013.97
2019-03-27T09:30:35.551Z,1013.88
2019-03-27T09:31:44.538Z,1013.88
2019-03-27T09:32:36.508Z,1013.87
2019-03-27T09:33:35.577Z,1013.84
2019-03-27T09:34:35.545Z,1013.88
2019-03-27T09:35:35.481Z,1013.82
2019-03-27T09:36:35.480Z,1013.89
2019-03-27T09:37:35.449Z,1013.88
2019-03-27T09:38:35.448Z,1013.91
2019-03-27T09:39:35.453Z,1013.95
2019-03-27T09:40:35.447Z,1013.92
2019-03-27T09:41:35.434Z,1013.87
2019-03-27T09:42:35.404Z,1013.91
2019-03-27T09:43:35.386Z,1013.89
2019-03-27T09:44:35.388Z,1013.96
2019-03-27T09:45:35.361Z,1013.95
2019-03-27T09:46:35.421Z,1013.96
2019-03-27T09:47:35.340Z,1013.93
2019-03-27T09:48:35.341Z,1014.03
2019-03-27T09:49:48.625Z,1014.02
2019-03-27T09:50:36.310Z,1013.98
2019-03-27T09:51:35.321Z,1014.01
2019-03-27T09:52:35.374Z,1013.99
2019-03-27T09:53:35.273Z,1014.00
2019-03-27T09:54:35.275Z,1014.00
2019-03-27T09:55:35.253Z,1014.02
2019-03-27T09:56:35.243Z,1013.99
2019-03-27T09:57:35.243Z,1014.00
2019-03-27T09:58:35.248Z,1013.92
2019-03-27T09:59:35.210Z,1013.97
2019-03-27T10:00:35.217Z,1013.99
2019-03-27T10:01:35.221Z,1014.00
2019-03-27T10:02:35.176Z,1014.02
2019-03-27T10:03:35.180Z,1014.02
2019-03-27T10:04:35.208Z,1013.95
2019-03-27T10:05:35.158Z,1013.97
2019-03-27T10:06:35.151Z,1013.94
2019-03-27T10:07:35.121Z,1013.94
2019-03-27T10:08:35.214Z,1013.89
2019-03-27T10:09:35.219Z,1013.96
2019-03-27T10:10:35.139Z,1013.95
2019-03-27T10:11:35.079Z,1013.93
2019-03-27T10:12:35.089Z,1013.92
2019-03-27T10:13:35.049Z,1013.92
2019-03-27T10:14:35.046Z,1013.88
2019-03-27T10:15:35.061Z,1013.86
2019-03-27T10:16:35.063Z,1013.91
2019-03-27T10:17:35.021Z,1013.90
2019-03-27T10:18:35.002Z,1013.96
2019-03-27T10:19:34.995Z,1013.99
2019-03-27T10:20:34.978Z,1013.99
2019-03-27T10:21:34.968Z,1013.95
2019-03-27T10:22:35.089Z,1013.93
2019-03-27T10:23:34.944Z,1013.91
2019-03-27T10:24:34.935Z,1013.88
2019-03-27T10:25:34.938Z,1013.83
2019-03-27T10:26:34.916Z,1013.86
2019-03-27T10:27:34.899Z,1013.86
2019-03-27T10:28:34.963Z,1013.87
2019-03-27T10:29:34.892Z,1013.86
2019-03-27T10:30:34.866Z,1013.84
2019-03-27T10:31:34.860Z,1013.83
2019-03-27T10:32:34.848Z,1013.83
2019-03-27T10:33:34.837Z,1013.84
2019-03-27T10:34:34.868Z,1013.88
2019-03-27T10:35:34.826Z,1013.85
2019-03-27T10:36:34.804Z,1013.89
2019-03-27T10:37:34.841Z,1013.89
2019-03-27T10:38:34.776Z,1013.88
2019-03-27T10:39:34.767Z,1013.88
2019-03-27T10:40:34.819Z,1013.87
2019-03-27T10:41:34.744Z,1013.85
2019-03-27T10:42:34.768Z,1013.89
2019-03-27T10:43:34.770Z,1013.94
2019-03-27T10:44:34.705Z,1013.91
2019-03-27T10:45:34.699Z,1013.85
2019-03-27T10:46:34.729Z,1013.83
2019-03-27T10:47:34.680Z,1013.86
2019-03-27T10:48:34.661Z,1013.84
2019-03-27T10:49:34.683Z,1013.89
2019-03-27T10:50:34.657Z,1013.86
2019-03-27T10:51:34.627Z,1013.85
2019-03-27T10:52:34.645Z,1013.85
2019-03-27T10:53:34.621Z,1013.86
2019-03-27T10:54:34.595Z,1013.93
2019-03-27T10:55:34.727Z,1013.89
2019-03-27T10:56:34.590Z,1013.86
2019-03-27T10:57:34.564Z,1013.85
2019-03-27T10:58:34.691Z,1013.84
2019-03-27T10:59:34.550Z,1013.89
2019-03-27T11:00:34.591Z,1013.89
2019-03-27T11:01:34.516Z,1013.88
2019-03-27T11:02:34.580Z,1013.84
2019-03-27T11:03:34.488Z,1013.85
2019-03-27T11:04:34.530Z,1013.88
2019-03-27T11:05:34.467Z,1013.88
2019-03-27T11:06:34.454Z,1013.88
2019-03-27T11:07:34.537Z,1013.86
2019-03-27T11:08:34.441Z,1013.90
2019-03-27T11:09:34.455Z,1013.87
2019-03-27T11:10:34.467Z,1013.92
2019-03-27T11:11:34.404Z,1013.90
2019-03-27T11:12:34.392Z,1013.90
2019-03-27T11:13:34.654Z,1013.91
2019-03-27T11:14:38.073Z,1013.90
2019-03-27T11:15:34.352Z,1013.95
2019-03-27T11:16:34.395Z,1013.95
2019-03-27T11:17:34.350Z,1013.90
2019-03-27T11:18:34.325Z,1013.89
2019-03-27T11:19:34.323Z,1013.94
2019-03-27T11:20:34.300Z,1013.97
2019-03-27T11:21:34.343Z,1013.97
2019-03-27T11:22:34.306Z,1013.95
2019-03-27T11:23:34.267Z,1013.94
2019-03-27T11:24:34.254Z,1013.90
2019-03-27T11:25:34.251Z,1013.87
2019-03-27T11:26:34.357Z,1013.88
2019-03-27T11:27:34.226Z,1013.88
2019-03-27T11:28:34.283Z,1013.94
2019-03-27T11:29:34.216Z,1013.95
2019-03-27T11:30:34.194Z,1013.90
2019-03-27T11:31:34.183Z,1013.92
2019-03-27T11:32:34.161Z,1013.91
2019-03-27T11:33:34.176Z,1013.93
2019-03-27T11:34:34.205Z,1013.88
2019-03-27T11:35:34.142Z,1013.88
2019-03-27T11:36:35.313Z,1013.94
2019-03-27T11:37:34.106Z,1013.86
2019-03-27T11:38:37.287Z,1013.92
2019-03-27T11:39:34.083Z,1013.93
2019-03-27T11:40:34.101Z,1013.93
2019-03-27T11:41:34.097Z,1013.99
2019-03-27T11:42:34.054Z,1013.94
2019-03-27T11:43:34.043Z,1013.92
2019-03-27T11:44:34.040Z,1013.93
2019-03-27T11:45:34.084Z,1013.95
2019-03-27T11:46:34.046Z,1013.98
2019-03-27T11:47:33.990Z,1013.88
2019-03-27T11:48:34.001Z,1013.83
2019-03-27T11:49:33.984Z,1013.84
2019-03-27T11:50:44.034Z,1013.84
2019-03-27T11:51:34.998Z,1013.87
2019-03-27T11:52:33.952Z,1013.87
2019-03-27T11:53:33.937Z,1013.88
2019-03-27T11:54:33.916Z,1013.87
2019-03-27T11:55:33.906Z,1013.88
2019-03-27T11:56:33.906Z,1013.87
2019-03-27T11:57:33.939Z,1013.86
2019-03-27T11:58:33.897Z,1013.88
2019-03-27T11:59:33.867Z,1013.87
2019-03-27T12:00:33.864Z,1013.89
2019-03-27T12:01:39.617Z,1013.88
2019-03-27T12:02:34.885Z,1013.87
2019-03-27T12:03:33.827Z,1013.89
2019-03-27T12:04:33.803Z,1013.86
2019-03-27T12:05:33.812Z,1013.84